Time;durP1;ratioP1;P1;durP2;ratioP2;P2;SDS_P1;SDS_P2;PMS_P1;PMS_P2;Temp;Humidity;BMP_temperature;BMP_pressure;BME280_temperature;BME280_humidity;BME280_pressure;Samples;Min_cycle;Max_cycle;Signal;HPM_P1;HPM_P2
2022/07/30 00:00:36;;;;;;;5.30;3.17;;;29.10;96.50;;;;;;5136983;27;20478;-71
2022/07/30 00:03:04;;;;;;;4.07;3.35;;;29.10;96.60;;;;;;5154750;27;20526;-71
2022/07/30 00:05:32;;;;;;;5.75;4.22;;;29.10;96.60;;;;;;5154619;27;20117;-71
2022/07/30 00:07:59;;;;;;;6.22;4.25;;;29.10;96.70;;;;;;5136927;27;20118;-71
2022/07/30 00:10:27;;;;;;;6.53;3.95;;;29.10;96.70;;;;;;5154169;27;20663;-71
2022/07/30 00:12:55;;;;;;;6.30;3.63;;;29.10;96.80;;;;;;5173036;27;20422;-71
2022/07/30 00:15:23;;;;;;;6.57;4.25;;;29.10;96.80;;;;;;5173216;27;20462;-71
2022/07/30 00:17:51;;;;;;;5.95;3.88;;;29.10;96.80;;;;;;5136219;27;20094;-71
2022/07/30 00:20:18;;;;;;;5.97;3.28;;;29.10;96.90;;;;;;5154756;27;20050;-71
2022/07/30 00:22:46;;;;;;;5.07;3.33;;;29.10;96.90;;;;;;5137287;27;20081;-71
2022/07/30 00:25:16;;;;;;;5.68;4.45;;;29.10;97.00;;;;;;5137143;27;20064;-71
2022/07/30 00:27:44;;;;;;;7.07;4.28;;;29.10;97.00;;;;;;5119961;27;20389;-71
2022/07/30 00:30:12;;;;;;;9.40;4.88;;;29.10;97.10;;;;;;5136918;27;20042;-71
2022/07/30 00:32:42;;;;;;;5.93;4.05;;;29.10;97.10;;;;;;5118529;27;20054;-71
2022/07/30 00:35:10;;;;;;;5.68;3.88;;;29.10;97.20;;;;;;5136754;27;20047;-71
2022/07/30 00:37:38;;;;;;;5.13;3.85;;;29.10;97.20;;;;;;5172830;27;20090;-71
2022/07/30 00:40:09;;;;;;;4.80;3.97;;;29.10;97.20;;;;;;5133095;27;20151;-71
2022/07/30 00:42:42;;;;;;;4.78;3.40;;;29.10;97.30;;;;;;5133377;27;20043;-71
2022/07/30 00:45:12;;;;;;;7.32;3.72;;;29.00;97.20;;;;;;5133622;27;20487;-71
2022/07/30 00:47:40;;;;;;;5.30;3.35;;;29.00;97.30;;;;;;5133572;27;20118;-71
2022/07/30 00:50:10;;;;;;;4.82;3.35;;;29.00;97.30;;;;;;5115886;27;20050;-71
2022/07/30 00:52:38;;;;;;;8.95;4.03;;;28.90;97.40;;;;;;5150805;27;20526;-71
2022/07/30 00:55:09;;;;;;;5.72;3.88;;;28.90;97.40;;;;;;5151558;27;20047;-71
2022/07/30 00:57:36;;;;;;;7.18;4.38;;;28.80;97.30;;;;;;5110126;28;20058;-71
2022/07/30 01:00:07;;;;;;;8.40;3.88;;;28.80;97.40;;;;;;5095494;28;20048;-71
2022/07/30 01:02:35;;;;;;;6.15;4.00;;;28.80;97.80;;;;;;5131085;27;20563;-71
2022/07/30 01:05:03;;;;;;;7.47;3.42;;;28.80;97.70;;;;;;5132750;27;20392;-71
2022/07/30 01:07:31;;;;;;;5.50;3.97;;;28.80;97.80;;;;;;5115263;27;20051;-71
2022/07/30 01:09:59;;;;;;;6.15;3.70;;;28.80;97.90;;;;;;5132990;27;20039;-71
2022/07/30 01:12:27;;;;;;;9.77;3.63;;;28.80;97.90;;;;;;5133412;27;20036;-71
2022/07/30 01:15:00;;;;;;;5.53;3.78;;;28.70;97.90;;;;;;5117012;27;20046;-71
2022/07/30 01:17:28;;;;;;;5.75;3.85;;;28.70;97.90;;;;;;5116318;27;20031;-71
2022/07/30 01:20:00;;;;;;;6.82;3.97;;;28.70;98.00;;;;;;5130834;27;20100;-71
2022/07/30 01:22:56;;;;;;;5.75;4.05;;;28.70;98.10;;;;;;5099655;27;20077;-71
2022/07/30 01:25:27;;;;;;;5.63;3.72;;;28.70;98.10;;;;;;5116822;27;20151;-71
2022/07/30 01:28:09;;;;;;;4.50;3.35;;;28.70;98.10;;;;;;5098078;27;20051;-71
2022/07/30 01:30:40;;;;;;;6.50;4.20;;;28.70;98.00;;;;;;5099324;27;20043;-71
2022/07/30 01:33:13;;;;;;;5.22;3.75;;;28.70;98.10;;;;;;5134553;27;20043;-71
2022/07/30 01:35:43;;;;;;;6.47;4.20;;;28.70;98.20;;;;;;5128742;27;20501;-71
2022/07/30 01:38:12;;;;;;;5.55;3.97;;;28.70;98.30;;;;;;5126973;27;20103;-71
2022/07/30 01:40:43;;;;;;;5.25;3.53;;;28.60;98.30;;;;;;5110190;27;20063;-71
2022/07/30 01:43:12;;;;;;;6.47;4.00;;;28.60;98.40;;;;;;5119792;27;20065;-71
2022/07/30 01:45:40;;;;;;;5.55;4.00;;;28.60;98.40;;;;;;5116368;27;20125;-71
2022/07/30 01:48:11;;;;;;;9.45;4.07;;;28.60;98.50;;;;;;5133891;27;20513;-72
2022/07/30 01:50:43;;;;;;;5.78;3.60;;;28.60;98.50;;;;;;5103307;27;20441;-71
2022/07/30 01:53:19;;;;;;;6.43;3.67;;;28.60;98.60;;;;;;5123471;27;22117;-72
2022/07/30 01:55:48;;;;;;;5.50;3.72;;;28.70;98.60;;;;;;5106540;27;20051;-70
2022/07/30 01:58:19;;;;;;;4.18;3.42;;;28.70;98.70;;;;;;5135194;27;20058;-71
2022/07/30 02:00:54;;;;;;;5.68;3.65;;;28.70;98.70;;;;;;5134375;27;20088;-71
2022/07/30 02:03:24;;;;;;;6.30;4.15;;;28.70;98.80;;;;;;5106815;27;20078;-72
2022/07/30 02:06:03;;;;;;;6.95;4.07;;;28.70;98.90;;;;;;5112687;27;20985;-72
2022/07/30 02:08:44;;;;;;;5.22;3.72;;;28.70;99.20;;;;;;5131429;27;20184;-72
2022/07/30 02:12:27;;;;;;;8.10;4.30;;;28.70;99.00;;;;;;5115721;27;20114;-72
2022/07/30 02:14:09;;;;;;;5.32;4.00;;;28.70;98.90;;;;;;5132111;27;20062;-71
2022/07/30 02:16:39;;;;;;;7.13;4.05;;;28.70;98.90;;;;;;5115547;27;20082;-71
2022/07/30 02:19:13;;;;;;;5.88;4.53;;;28.70;98.90;;;;;;5121864;27;20492;-71
2022/07/30 02:21:46;;;;;;;5.90;4.15;;;28.60;98.90;;;;;;5125312;27;20065;-72
2022/07/30 02:24:23;;;;;;;5.85;3.95;;;28.60;98.90;;;;;;5131934;27;20058;-71
2022/07/30 02:26:56;;;;;;;6.20;3.60;;;28.60;99.00;;;;;;5132250;27;20124;-71
2022/07/30 02:29:25;;;;;;;5.70;3.72;;;28.60;98.90;;;;;;5115276;27;20043;-72
2022/07/30 02:31:55;;;;;;;5.68;3.63;;;28.50;98.90;;;;;;5131671;27;20096;-71
2022/07/30 02:34:24;;;;;;;8.32;4.40;;;28.50;98.80;;;;;;5099686;27;20450;-72
2022/07/30 02:36:53;;;;;;;6.95;4.00;;;28.50;98.80;;;;;;5099300;27;20043;-71
2022/07/30 02:39:22;;;;;;;9.73;4.82;;;28.50;98.80;;;;;;5150048;27;20445;-72
2022/07/30 02:41:51;;;;;;;6.65;4.07;;;28.50;98.90;;;;;;5134808;27;20049;-72
2022/07/30 02:44:20;;;;;;;8.38;4.40;;;28.40;98.90;;;;;;5104964;27;20035;-71
2022/07/30 02:46:50;;;;;;;11.93;4.28;;;28.40;98.90;;;;;;5129353;27;20065;-71
2022/07/30 02:49:40;;;;;;;7.07;4.15;;;28.40;99.00;;;;;;5138522;27;20050;-71
2022/07/30 02:52:12;;;;;;;6.90;3.85;;;28.40;99.00;;;;;;5117105;27;20051;-71
2022/07/30 02:54:41;;;;;;;6.47;3.97;;;28.40;99.00;;;;;;5135077;27;20046;-72
2022/07/30 02:57:10;;;;;;;8.15;4.93;;;28.40;99.00;;;;;;5117718;27;20053;-72
2022/07/30 02:59:40;;;;;;;5.93;4.03;;;28.40;99.00;;;;;;5134938;27;20046;-73
2022/07/30 03:02:10;;;;;;;5.70;3.88;;;28.30;99.10;;;;;;5127626;27;20070;-71
2022/07/30 03:04:39;;;;;;;7.00;4.47;;;28.40;99.10;;;;;;5134048;27;20042;-71
2022/07/30 03:07:10;;;;;;;6.32;3.78;;;28.30;99.00;;;;;;5134512;27;20079;-71
2022/07/30 03:09:41;;;;;;;6.60;4.82;;;28.40;99.10;;;;;;5117936;27;20050;-71
2022/07/30 03:12:11;;;;;;;8.73;4.35;;;28.40;99.00;;;;;;5116728;27;20057;-71
2022/07/30 03:14:39;;;;;;;5.45;3.85;;;28.40;99.00;;;;;;5117934;27;20039;-71
2022/07/30 03:17:09;;;;;;;6.72;5.00;;;28.40;99.00;;;;;;5116710;27;20074;-71
2022/07/30 03:19:38;;;;;;;6.40;4.57;;;28.40;99.00;;;;;;5116827;27;20050;-72
2022/07/30 03:22:08;;;;;;;6.03;5.05;;;28.40;99.10;;;;;;5134805;27;20412;-72
2022/07/30 03:24:38;;;;;;;8.93;6.03;;;28.40;99.10;;;;;;5140658;27;20114;-71
2022/07/30 03:27:07;;;;;;;9.32;7.03;;;28.40;99.10;;;;;;5134276;27;20047;-72
2022/07/30 03:29:37;;;;;;;8.60;6.03;;;28.40;99.10;;;;;;5152515;27;20062;-72
2022/07/30 03:32:05;;;;;;;8.82;5.55;;;28.40;99.00;;;;;;5100136;27;20465;-71
2022/07/30 03:34:34;;;;;;;7.32;5.95;;;28.30;99.00;;;;;;5117266;27;20091;-71
2022/07/30 03:37:05;;;;;;;9.77;5.97;;;28.30;99.10;;;;;;5117019;27;20085;-71
2022/07/30 03:39:35;;;;;;;9.82;6.05;;;28.30;99.10;;;;;;5144964;27;20055;-72
2022/07/30 03:42:06;;;;;;;6.88;5.70;;;28.20;99.10;;;;;;5100602;27;20047;-71
2022/07/30 03:44:35;;;;;;;13.18;6.40;;;28.20;99.20;;;;;;5117399;27;20078;-71
2022/07/30 03:47:06;;;;;;;12.15;6.43;;;28.20;99.10;;;;;;5100138;27;20046;-71
2022/07/30 03:49:41;;;;;;;15.10;7.63;;;28.20;99.20;;;;;;5134026;27;20039;-72
2022/07/30 03:52:10;;;;;;;12.10;5.40;;;28.20;99.20;;;;;;5099495;27;20074;-72
2022/07/30 03:54:38;;;;;;;9.40;5.40;;;28.20;99.30;;;;;;5144341;27;20043;-72
2022/07/30 03:57:44;;;;;;;7.72;5.35;;;28.20;99.30;;;;;;5121609;27;20047;-71
2022/07/30 04:00:13;;;;;;;7.22;5.18;;;28.20;99.30;;;;;;5152158;27;20130;-72
2022/07/30 04:02:46;;;;;;;7.57;5.70;;;28.30;99.30;;;;;;5100390;27;20524;-71
2022/07/30 04:05:26;;;;;;;11.60;5.93;;;28.30;99.30;;;;;;5133433;27;20043;-71
2022/07/30 04:08:00;;;;;;;9.07;6.10;;;28.30;99.30;;;;;;5133309;27;20046;-72
2022/07/30 04:10:31;;;;;;;10.35;6.85;;;28.30;99.20;;;;;;5116306;27;20042;-71
2022/07/30 04:12:59;;;;;;;8.82;5.97;;;28.40;99.20;;;;;;5150556;27;20039;-71
2022/07/30 04:15:31;;;;;;;9.13;6.20;;;28.40;99.20;;;;;;5116846;27;20450;-71
2022/07/30 04:18:03;;;;;;;8.48;6.80;;;28.40;99.20;;;;;;5116294;27;20043;-72
2022/07/30 04:20:38;;;;;;;11.27;5.72;;;28.50;99.20;;;;;;5133383;27;20049;-71
2022/07/30 04:23:07;;;;;;;9.30;6.15;;;28.50;99.00;;;;;;5133248;27;20054;-71
2022/07/30 04:25:35;;;;;;;7.65;5.50;;;28.60;99.00;;;;;;5133371;27;20046;-72
2022/07/30 04:28:05;;;;;;;7.65;5.45;;;28.60;99.00;;;;;;5142192;27;20109;-71
2022/07/30 04:30:33;;;;;;;8.57;5.88;;;28.70;98.80;;;;;;5135000;27;20435;-71
2022/07/30 04:33:03;;;;;;;7.13;5.80;;;28.70;98.70;;;;;;5129302;27;20047;-72
2022/07/30 04:36:07;;;;;;;12.18;5.55;;;28.80;98.70;;;;;;5105904;27;20127;-71
2022/07/30 04:38:37;;;;;;;8.02;5.50;;;28.90;98.50;;;;;;5156223;27;20057;-72
2022/07/30 04:41:05;;;;;;;9.05;5.75;;;29.00;98.50;;;;;;5122542;27;20076;-71
2022/07/30 04:43:52;;;;;;;9.25;5.93;;;29.10;98.30;;;;;;5142679;27;20041;-71
2022/07/30 04:46:20;;;;;;;14.50;5.32;;;29.20;98.20;;;;;;5140083;27;20053;-72
2022/07/30 04:48:48;;;;;;;8.25;5.38;;;29.30;98.10;;;;;;5149446;27;20078;-72
2022/07/30 04:51:24;;;;;;;5.85;5.15;;;29.40;98.00;;;;;;5139745;27;20043;-71
2022/07/30 04:53:54;;;;;;;7.30;5.40;;;29.50;97.90;;;;;;5105591;27;20054;-71
2022/07/30 04:56:23;;;;;;;7.47;4.85;;;29.60;97.80;;;;;;5122434;27;20146;-71
2022/07/30 04:58:53;;;;;;;10.05;5.63;;;29.70;97.80;;;;;;5126893;27;20053;-71
2022/07/30 05:01:32;;;;;;;8.82;5.80;;;29.90;97.70;;;;;;5141219;27;20449;-71
2022/07/30 05:04:01;;;;;;;7.60;4.97;;;30.00;97.60;;;;;;5137224;27;20058;-71
2022/07/30 05:06:30;;;;;;;11.85;5.15;;;30.10;97.70;;;;;;5122442;27;20042;-71
2022/07/30 05:08:58;;;;;;;8.02;4.90;;;30.10;97.50;;;;;;5127315;27;20046;-72
2022/07/30 05:11:26;;;;;;;7.47;5.97;;;30.20;97.50;;;;;;5136024;27;20098;-72
2022/07/30 05:13:55;;;;;;;6.63;4.35;;;30.30;97.30;;;;;;5133773;27;20061;-71
2022/07/30 05:16:25;;;;;;;8.75;4.80;;;30.50;97.30;;;;;;5152500;27;20043;-72
2022/07/30 05:18:55;;;;;;;8.35;4.72;;;30.60;97.30;;;;;;5122891;27;20054;-72
2022/07/30 05:21:23;;;;;;;7.20;5.30;;;30.60;97.10;;;;;;5139893;27;20388;-71
2022/07/30 05:23:50;;;;;;;6.88;4.70;;;30.80;97.00;;;;;;5139345;27;20102;-71
2022/07/30 05:26:28;;;;;;;7.95;4.57;;;30.90;97.00;;;;;;5122792;27;20065;-71
2022/07/30 05:28:57;;;;;;;8.10;5.75;;;30.90;96.90;;;;;;5106225;27;20046;-72
2022/07/30 05:31:31;;;;;;;9.27;5.82;;;30.90;96.80;;;;;;5110649;27;20050;-71
2022/07/30 05:34:02;;;;;;;8.27;4.90;;;31.00;96.80;;;;;;5105072;27;20498;-71
2022/07/30 05:36:41;;;;;;;9.93;4.80;;;31.10;96.80;;;;;;5120868;27;20106;-71
2022/07/30 05:39:11;;;;;;;7.63;5.15;;;31.10;96.70;;;;;;5138616;27;20161;-72
2022/07/30 05:41:58;;;;;;;5.95;4.53;;;31.20;96.40;;;;;;5127970;27;20111;-71
2022/07/30 05:44:39;;;;;;;7.60;5.97;;;31.30;96.30;;;;;;5123949;27;20129;-71
2022/07/30 05:47:07;;;;;;;6.97;4.82;;;31.30;96.10;;;;;;5120941;27;20452;-72
2022/07/30 05:49:35;;;;;;;7.82;4.78;;;31.40;96.10;;;;;;5101891;27;20492;-71
2022/07/30 05:52:07;;;;;;;7.68;5.00;;;31.40;96.00;;;;;;5135719;27;20553;-71
2022/07/30 05:54:34;;;;;;;7.85;4.15;;;31.50;95.90;;;;;;5102009;27;20038;-71
2022/07/30 05:57:21;;;;;;;5.43;4.38;;;31.50;95.30;;;;;;5122282;27;20057;-71
2022/07/30 05:59:49;;;;;;;5.78;4.60;;;31.60;95.20;;;;;;5119288;27;20042;-73
2022/07/30 06:02:23;;;;;;;7.32;4.45;;;31.70;94.70;;;;;;5105040;27;20613;-72
2022/07/30 06:05:14;;;;;;;5.57;4.20;;;31.80;93.60;;;;;;5114365;27;20046;-72
2022/07/30 06:07:43;;;;;;;6.72;5.03;;;31.90;93.50;;;;;;5102355;27;20051;-71
2022/07/30 06:10:11;;;;;;;9.50;5.00;;;32.00;92.70;;;;;;5119163;27;20042;-71
2022/07/30 06:12:41;;;;;;;12.88;5.47;;;32.10;92.20;;;;;;5136178;27;20035;-71
2022/07/30 06:15:10;;;;;;;7.43;5.25;;;32.00;91.90;;;;;;5118653;27;20042;-71
2022/07/30 06:17:44;;;;;;;9.57;4.97;;;32.20;92.30;;;;;;5119100;27;20107;-71
2022/07/30 06:20:31;;;;;;;7.28;4.35;;;32.30;92.50;;;;;;5111110;27;20054;-71
2022/07/30 06:23:25;;;;;;;6.85;4.50;;;32.50;92.50;;;;;;5149840;27;20065;-71
2022/07/30 06:26:06;;;;;;;11.93;5.72;;;32.70;92.20;;;;;;5120441;27;20515;-72
2022/07/30 06:28:34;;;;;;;7.50;5.18;;;32.80;92.10;;;;;;5153987;27;20492;-72
2022/07/30 06:31:04;;;;;;;7.57;4.75;;;32.90;91.90;;;;;;5135274;27;20047;-72
2022/07/30 06:33:32;;;;;;;7.18;4.80;;;32.80;91.20;;;;;;5118656;27;20083;-71
2022/07/30 06:36:00;;;;;;;7.70;4.53;;;32.70;91.00;;;;;;5118026;27;20072;-71
2022/07/30 06:38:32;;;;;;;8.85;4.53;;;32.70;91.00;;;;;;5135486;27;20039;-72
2022/07/30 06:41:09;;;;;;;6.18;4.63;;;32.80;90.90;;;;;;5118298;27;20074;-71
2022/07/30 06:43:51;;;;;;;7.38;4.68;;;33.00;90.80;;;;;;5103510;27;20051;-72
2022/07/30 06:46:39;;;;;;;10.05;4.57;;;33.20;90.50;;;;;;5138796;27;20047;-71
2022/07/30 06:49:07;;;;;;;5.88;4.25;;;33.30;88.40;;;;;;5135526;27;20122;-72
2022/07/30 06:51:35;;;;;;;8.50;4.70;;;33.40;87.10;;;;;;5100836;27;20456;-71
2022/07/30 06:54:03;;;;;;;7.68;5.15;;;33.50;87.50;;;;;;5117712;27;20043;-71
2022/07/30 06:56:33;;;;;;;6.88;5.32;;;33.60;87.80;;;;;;5118534;27;20146;-71
2022/07/30 06:59:04;;;;;;;8.40;5.47;;;33.80;87.10;;;;;;5116346;27;20786;-72
2022/07/30 07:01:52;;;;;;;5.35;3.90;;;33.90;87.30;;;;;;5153455;27;20042;-71
2022/07/30 07:04:22;;;;;;;5.70;4.65;;;33.90;84.30;;;;;;5100706;27;20070;-72
2022/07/30 07:06:49;;;;;;;5.90;4.28;;;34.00;82.20;;;;;;5134752;27;20421;-71
2022/07/30 07:09:26;;;;;;;11.10;4.05;;;34.10;81.90;;;;;;5118916;27;20542;-72
2022/07/30 07:12:16;;;;;;;7.75;4.10;;;34.20;82.60;;;;;;5152481;27;20057;-72
2022/07/30 07:14:45;;;;;;;6.00;3.95;;;34.40;81.90;;;;;;5117609;27;20401;-72
2022/07/30 07:17:13;;;;;;;6.55;4.20;;;34.50;81.20;;;;;;5117388;27;20039;-72
2022/07/30 07:19:59;;;;;;;5.43;4.00;;;34.60;81.20;;;;;;5152448;27;20144;-72
2022/07/30 07:22:33;;;;;;;7.23;3.73;;;34.70;82.00;;;;;;5118884;27;20126;-72
2022/07/30 07:25:02;;;;;;;5.07;3.35;;;34.90;82.50;;;;;;5117688;27;20042;-71
2022/07/30 07:27:32;;;;;;;7.78;4.57;;;35.00;82.90;;;;;;5134062;27;20146;-71
2022/07/30 07:30:03;;;;;;;6.57;4.25;;;35.10;82.50;;;;;;5134443;27;20095;-71
2022/07/30 07:32:34;;;;;;;4.90;3.30;;;35.00;81.10;;;;;;5100852;27;20492;-72
2022/07/30 07:35:04;;;;;;;6.03;3.83;;;34.80;79.30;;;;;;5120033;27;20046;-71
2022/07/30 07:37:34;;;;;;;5.65;3.97;;;34.70;80.40;;;;;;5137531;27;20395;-71
2022/07/30 07:40:05;;;;;;;5.65;3.55;;;34.80;82.00;;;;;;5133895;27;20054;-72
2022/07/30 07:42:37;;;;;;;5.88;3.65;;;34.70;78.50;;;;;;5134534;27;20047;-71
2022/07/30 07:45:06;;;;;;;5.82;3.95;;;34.80;76.80;;;;;;5134210;27;20030;-72
2022/07/30 07:47:44;;;;;;;5.03;3.47;;;35.00;76.10;;;;;;5134111;27;20050;-72
2022/07/30 07:50:18;;;;;;;5.65;4.00;;;35.10;74.40;;;;;;5134848;27;20444;-72
2022/07/30 07:52:45;;;;;;;6.60;4.05;;;35.30;77.10;;;;;;5151295;27;20090;-72
2022/07/30 07:55:13;;;;;;;6.70;4.72;;;35.50;76.20;;;;;;5151259;27;20042;-72
2022/07/30 07:57:44;;;;;;;4.55;3.22;;;35.50;74.60;;;;;;5151264;27;20560;-72
2022/07/30 08:00:14;;;;;;;7.38;3.47;;;35.60;73.30;;;;;;5150770;27;20061;-72
2022/07/30 08:02:51;;;;;;;5.82;3.67;;;35.60;71.90;;;;;;5150999;27;20042;-72
2022/07/30 08:05:19;;;;;;;5.13;3.65;;;35.70;71.70;;;;;;5133320;27;20069;-72
2022/07/30 08:07:52;;;;;;;6.32;4.05;;;35.80;72.70;;;;;;5133996;27;20053;-72
2022/07/30 08:10:43;;;;;;;4.35;3.50;;;35.90;72.20;;;;;;5140007;27;20115;-72
2022/07/30 08:13:37;;;;;;;6.03;3.63;;;36.00;72.20;;;;;;5150354;27;20058;-72
2022/07/30 08:16:23;;;;;;;5.55;3.60;;;35.90;71.50;;;;;;5136332;27;20042;-73
2022/07/30 08:19:10;;;;;;;6.50;4.45;;;35.80;71.10;;;;;;5150072;27;20047;-71
2022/07/30 08:21:41;;;;;;;4.97;3.50;;;35.70;72.60;;;;;;5150937;27;20039;-72
2022/07/30 08:24:09;;;;;;;5.78;3.50;;;35.80;72.80;;;;;;5115871;27;20977;-72
2022/07/30 08:26:36;;;;;;;5.43;3.67;;;35.90;71.90;;;;;;5149688;27;20051;-72
2022/07/30 08:29:04;;;;;;;7.88;3.65;;;36.00;72.30;;;;;;5133830;27;20050;-72
2022/07/30 08:31:34;;;;;;;7.60;3.75;;;36.10;71.70;;;;;;5150661;27;20080;-72
2022/07/30 08:34:02;;;;;;;6.60;3.42;;;36.30;71.90;;;;;;5115985;27;20097;-72
2022/07/30 08:36:30;;;;;;;4.53;3.38;;;36.50;71.60;;;;;;5133301;27;20050;-72
2022/07/30 08:38:57;;;;;;;4.82;3.35;;;36.50;71.60;;;;;;5115544;27;20625;-71
2022/07/30 08:41:26;;;;;;;7.10;3.95;;;36.60;70.40;;;;;;5133346;27;20039;-72
2022/07/30 08:43:54;;;;;;;6.88;3.47;;;36.60;70.60;;;;;;5116084;27;20065;-72
2022/07/30 08:46:24;;;;;;;6.50;3.97;;;36.40;71.20;;;;;;5132648;27;20046;-72
2022/07/30 08:49:14;;;;;;;6.05;3.80;;;36.40;72.10;;;;;;5132586;27;20141;-72
2022/07/30 08:51:42;;;;;;;5.85;3.47;;;36.50;72.50;;;;;;5132837;27;20046;-72
2022/07/30 08:54:25;;;;;;;5.05;3.67;;;36.50;70.50;;;;;;5135205;27;20046;-71
2022/07/30 08:56:53;;;;;;;6.43;4.18;;;36.40;69.90;;;;;;5116056;27;20050;-71
2022/07/30 08:59:22;;;;;;;6.35;3.92;;;36.40;70.10;;;;;;5150264;27;20114;-71
2022/07/30 09:01:50;;;;;;;4.70;3.17;;;36.50;69.50;;;;;;5150337;27;20050;-71
2022/07/30 09:04:18;;;;;;;6.10;4.00;;;36.60;69.90;;;;;;5150308;27;20087;-72
2022/07/30 09:06:46;;;;;;;6.20;4.10;;;36.70;69.80;;;;;;5115915;27;20111;-72
2022/07/30 09:09:15;;;;;;;5.43;3.42;;;36.80;69.80;;;;;;5133341;27;20046;-71
2022/07/30 09:11:43;;;;;;;4.65;3.40;;;36.90;69.40;;;;;;5133497;27;20373;-71
2022/07/30 09:14:13;;;;;;;6.05;4.05;;;36.90;69.80;;;;;;5143023;27;20043;-72
2022/07/30 09:16:44;;;;;;;4.57;3.42;;;36.90;70.10;;;;;;5096198;28;20055;-72
2022/07/30 09:19:22;;;;;;;5.05;3.53;;;36.90;69.60;;;;;;5129992;28;20043;-71
2022/07/30 09:21:58;;;;;;;4.28;3.00;;;36.90;68.90;;;;;;5112444;27;20393;-72
2022/07/30 09:24:51;;;;;;;6.13;3.72;;;36.80;69.00;;;;;;5132859;27;20047;-72
2022/07/30 09:27:45;;;;;;;6.82;3.75;;;36.70;69.00;;;;;;5134721;27;20043;-72
2022/07/30 09:30:51;;;;;;;4.88;3.20;;;36.70;70.30;;;;;;5134732;27;20039;-72
2022/07/30 09:33:43;;;;;;;4.23;3.00;;;36.80;69.40;;;;;;5118547;27;20051;-72
2022/07/30 09:36:31;;;;;;;6.80;3.65;;;36.90;68.80;;;;;;5133455;27;20051;-71
2022/07/30 09:39:32;;;;;;;5.05;3.00;;;36.90;68.70;;;;;;5118859;27;20050;-71
2022/07/30 09:42:20;;;;;;;5.93;3.63;;;36.80;68.80;;;;;;5133401;27;20397;-71
2022/07/30 09:44:50;;;;;;;9.80;4.00;;;36.70;69.50;;;;;;5111180;27;20058;-72
2022/07/30 09:47:40;;;;;;;8.27;3.40;;;36.70;69.30;;;;;;5103150;27;20090;-72
2022/07/30 09:50:12;;;;;;;6.22;3.33;;;36.80;69.90;;;;;;5104686;27;20047;-72
2022/07/30 09:52:43;;;;;;;4.78;3.47;;;36.60;68.90;;;;;;5115211;27;20135;-72
2022/07/30 09:55:12;;;;;;;5.45;3.55;;;36.60;69.40;;;;;;5099913;27;20048;-72
2022/07/30 09:57:59;;;;;;;6.30;3.20;;;36.50;69.70;;;;;;5102930;28;20059;-72
2022/07/30 10:00:29;;;;;;;6.55;3.70;;;36.50;70.10;;;;;;5126250;27;20051;-71
2022/07/30 10:03:23;;;;;;;4.57;3.25;;;36.40;69.80;;;;;;5115102;27;20039;-72
2022/07/30 10:06:09;;;;;;;3.97;3.33;;;36.30;69.90;;;;;;5113976;27;20043;-72
2022/07/30 10:08:49;;;;;;;5.13;3.60;;;36.20;70.10;;;;;;5118246;27;20520;-72
2022/07/30 10:11:23;;;;;;;6.18;4.10;;;36.30;70.30;;;;;;5091866;27;20044;-72
2022/07/30 10:13:58;;;;;;;5.32;3.63;;;36.40;70.50;;;;;;5089866;28;20100;-72
2022/07/30 10:16:26;;;;;;;6.15;4.20;;;36.50;70.20;;;;;;5120662;27;20043;-73
2022/07/30 10:18:58;;;;;;;5.25;3.10;;;36.50;70.20;;;;;;5129160;27;20156;-72
2022/07/30 10:21:44;;;;;;;7.47;3.78;;;36.50;69.80;;;;;;5111971;28;20085;-72
2022/07/30 10:24:36;;;;;;;4.90;3.30;;;36.60;71.00;;;;;;5092774;28;20070;-72
2022/07/30 10:27:19;;;;;;;5.15;3.38;;;36.60;70.40;;;;;;5111283;28;20139;-73
2022/07/30 10:30:17;;;;;;;4.85;3.00;;;36.50;70.20;;;;;;5108179;28;20078;-72
2022/07/30 10:32:45;;;;;;;4.53;3.47;;;36.40;70.50;;;;;;5128786;27;20051;-72
2022/07/30 10:35:13;;;;;;;4.55;3.60;;;36.30;70.40;;;;;;5112357;28;20146;-71
2022/07/30 10:37:47;;;;;;;4.30;3.20;;;36.30;70.60;;;;;;5144204;27;20506;-71
2022/07/30 10:40:29;;;;;;;4.57;3.42;;;36.40;70.70;;;;;;5114273;27;20055;-72
2022/07/30 10:43:30;;;;;;;7.80;4.15;;;36.40;70.40;;;;;;5097591;27;20055;-72
2022/07/30 10:46:16;;;;;;;6.28;3.80;;;36.20;70.90;;;;;;5114249;27;20435;-72
2022/07/30 10:48:44;;;;;;;6.13;3.92;;;36.10;71.00;;;;;;5130107;27;20136;-72
2022/07/30 10:51:12;;;;;;;5.15;4.65;;;36.00;71.60;;;;;;5096076;27;20047;-73
2022/07/30 10:53:44;;;;;;;6.15;4.03;;;36.10;71.40;;;;;;5130334;27;20039;-72
2022/07/30 10:56:12;;;;;;;6.13;4.22;;;36.10;71.10;;;;;;5094882;27;20047;-71
2022/07/30 10:59:00;;;;;;;8.40;4.25;;;36.20;71.00;;;;;;5112335;27;20164;-72
2022/07/30 11:01:46;;;;;;;7.30;4.15;;;36.20;70.80;;;;;;5112112;27;20055;-72
2022/07/30 11:04:20;;;;;;;9.10;3.90;;;36.10;71.10;;;;;;5113088;27;20047;-71
2022/07/30 11:06:49;;;;;;;6.40;4.18;;;36.10;71.80;;;;;;5111887;27;20631;-72
2022/07/30 11:09:36;;;;;;;7.30;3.97;;;36.10;72.00;;;;;;5112899;27;20104;-71
2022/07/30 11:12:05;;;;;;;5.00;3.45;;;36.20;71.90;;;;;;5129520;27;20043;-72
2022/07/30 11:14:54;;;;;;;6.32;4.28;;;36.30;71.10;;;;;;5113163;27;20108;-72
2022/07/30 11:17:22;;;;;;;5.18;3.58;;;36.30;70.60;;;;;;5113027;27;20378;-71
2022/07/30 11:20:08;;;;;;;5.65;3.78;;;36.30;70.80;;;;;;5129336;27;20066;-72
2022/07/30 11:22:43;;;;;;;;;;;36.30;70.60;;;;;;5112518;27;20074;-72
2022/07/30 11:25:31;;;;;;;8.55;3.40;;;36.30;70.70;;;;;;5129256;27;19923;-72
2022/07/30 11:28:02;;;;;;;6.25;4.28;;;36.30;70.60;;;;;;5128883;27;20050;-72
2022/07/30 11:30:33;;;;;;;4.65;3.70;;;36.20;70.40;;;;;;5112616;27;20066;-71
2022/07/30 11:33:03;;;;;;;5.38;3.83;;;36.10;70.60;;;;;;5112674;27;20042;-72
2022/07/30 11:35:31;;;;;;;4.93;3.28;;;35.80;71.20;;;;;;5129149;27;20095;-72
2022/07/30 11:38:01;;;;;;;7.10;3.50;;;35.60;71.40;;;;;;5112185;27;20055;-72
2022/07/30 11:40:35;;;;;;;6.85;3.63;;;35.60;71.70;;;;;;5147496;27;20103;-72
2022/07/30 11:43:23;;;;;;;9.10;3.90;;;35.70;71.60;;;;;;5132462;27;20194;-71
2022/07/30 11:46:09;;;;;;;5.53;3.65;;;35.60;71.20;;;;;;5114296;27;20047;-72
2022/07/30 11:48:39;;;;;;;5.05;3.83;;;35.70;71.20;;;;;;5132659;27;20182;-72
2022/07/30 11:51:09;;;;;;;5.30;3.22;;;35.70;71.20;;;;;;5114843;27;20042;-72
2022/07/30 11:53:37;;;;;;;5.78;5.00;;;35.70;70.80;;;;;;5127373;27;20042;-72
2022/07/30 11:56:05;;;;;;;6.55;3.72;;;35.70;70.90;;;;;;5149990;27;20035;-71
2022/07/30 11:58:37;;;;;;;5.55;3.25;;;35.60;70.60;;;;;;5131937;27;20050;-72
2022/07/30 12:01:13;;;;;;;4.68;2.90;;;35.50;70.50;;;;;;5150079;27;20042;-72
2022/07/30 12:03:44;;;;;;;4.25;2.90;;;35.50;70.70;;;;;;5150192;27;20057;-72
2022/07/30 12:06:18;;;;;;;5.03;3.80;;;35.40;70.80;;;;;;5132102;27;20476;-72
2022/07/30 12:08:48;;;;;;;5.57;3.55;;;35.30;71.00;;;;;;5131388;27;20050;-72
2022/07/30 12:11:17;;;;;;;6.60;3.72;;;35.40;71.00;;;;;;5098855;27;20141;-71
2022/07/30 12:13:58;;;;;;;5.80;3.38;;;35.40;70.90;;;;;;5132560;27;20054;-72
2022/07/30 12:16:27;;;;;;;4.90;3.22;;;35.30;70.70;;;;;;5115189;27;20042;-72
2022/07/30 12:19:04;;;;;;;13.50;3.70;;;35.30;71.20;;;;;;5143349;27;20482;-71
2022/07/30 12:21:33;;;;;;;5.72;3.50;;;35.30;71.00;;;;;;5159263;27;20378;-72
2022/07/30 12:24:11;;;;;;;7.40;3.13;;;35.30;70.80;;;;;;5115870;27;20042;-71
2022/07/30 12:26:39;;;;;;;6.95;3.85;;;35.40;70.60;;;;;;5144255;27;20034;-70
2022/07/30 12:29:10;;;;;;;7.03;4.07;;;35.30;70.30;;;;;;5149325;27;20095;-70
2022/07/30 12:31:39;;;;;;;7.13;3.42;;;35.20;70.30;;;;;;5138177;27;20400;-70
2022/07/30 12:34:23;;;;;;;3.97;3.03;;;35.00;70.30;;;;;;5140331;27;20137;-71
2022/07/30 12:36:52;;;;;;;7.60;4.07;;;35.00;70.60;;;;;;5143754;27;20504;-70
2022/07/30 12:39:22;;;;;;;5.38;3.60;;;35.00;70.60;;;;;;5128360;27;20048;-71
2022/07/30 12:41:54;;;;;;;6.63;3.75;;;35.10;70.60;;;;;;5151372;27;20198;-71
2022/07/30 12:44:43;;;;;;;6.55;3.40;;;35.20;70.10;;;;;;5147355;27;20421;-71
2022/07/30 12:47:24;;;;;;;5.72;3.45;;;35.30;70.10;;;;;;5112972;27;20064;-71
2022/07/30 12:49:53;;;;;;;4.22;3.50;;;35.40;69.90;;;;;;5137017;27;20043;-71
2022/07/30 12:52:30;;;;;;;9.13;3.33;;;35.40;69.60;;;;;;5113655;27;20047;-71
2022/07/30 12:55:10;;;;;;;10.23;3.25;;;35.40;69.40;;;;;;5146176;27;20042;-73
2022/07/30 12:57:56;;;;;;;5.65;3.95;;;35.30;69.30;;;;;;5147943;27;20089;-70
2022/07/30 13:00:32;;;;;;;6.07;3.70;;;35.30;69.10;;;;;;5138026;27;20046;-71
2022/07/30 13:03:00;;;;;;;5.22;3.63;;;35.40;68.90;;;;;;5143862;27;20473;-70
2022/07/30 13:05:47;;;;;;;6.70;3.25;;;35.40;68.90;;;;;;5127253;27;20050;-71
2022/07/30 13:08:15;;;;;;;4.97;3.40;;;35.40;69.20;;;;;;5163349;27;20050;-70
2022/07/30 13:10:58;;;;;;;5.95;3.30;;;35.40;69.00;;;;;;5165706;27;20044;-72
2022/07/30 13:13:27;;;;;;;4.68;3.35;;;35.30;69.10;;;;;;5144826;27;20050;-71
2022/07/30 13:16:04;;;;;;;4.65;3.08;;;35.40;69.40;;;;;;5112145;27;20541;-71
2022/07/30 13:18:34;;;;;;;5.20;3.30;;;35.40;69.10;;;;;;5157831;27;20038;-71